Aviation Digital Data Service (ADDS)

Output produced by METARs form (2003 UTC 06 March 2015)
found at http://aviationweather.gov/adds/metars/
 
KSAN 061724Z 0618/0724 VRB03KT P6SM SKC 
     FM062000 31011KT P6SM SKC 
     FM070300 VRB03KT P6SM SKC 
     FM072000 29009KT P6SM FEW250